Flight Track Log - Related Links

Times and Time Zones

All times are in EDT time to prevent confusion due to time zone crossing. See the SKW5305 flight status page for this flight to view local times or setup timezone preferences in your user account.

Time Position Orientation Groundspeed Altitude Reporting Facility
EDT Latitude Longitude Course Direction KTS MPH feet Rate Location/Type
Sun 08:40:26 PM 47.4431 -122.3061 180° South 131 151 1,100  Level Seattle Center
Sun 08:41:02 PM 47.4236 -122.3169 201° Southwest 123 142 2,300 1,856 Climbing Seattle Center
Sun 08:42:03 PM 47.3853 -122.3411 203° Southwest 148 170 4,100 1,721 Climbing Seattle Center
Sun 08:43:04 PM 47.3450 -122.3667 203° Southwest 167 192 5,800 1,426 Climbing Seattle Center
Sun 08:44:00 PM 47.0912 -122.3683 180° South  Level Estimated
Sun 08:44:05 PM 47.2950 -122.3972 203° Southwest 180 207 7,000  Level Seattle Center
Sun 08:44:55 PM 47.2533 -122.3936 177° South 199 229 7,000  Level Seattle Center
Sun 08:45:00 PM 47.0015 -122.3823 180° South  Level Estimated
Sun 08:45:56 PM 47.1961 -122.3764 168° South 212 244 7,000  Level Seattle Center
Sun 08:46:00 PM 46.9408 -122.3917 180° South  Level Estimated
Sun 08:46:57 PM 47.1411 -122.3567 166° South 207 238 8,500  Level Seattle Center
Sun 08:47:57 PM 47.0881 -122.3389 167° South 199 229 10,200 1,537 Climbing Seattle Center
Sun 08:48:58 PM 47.0306 -122.3231 169° South 214 246 11,600 1,328 Climbing Seattle Center
Sun 08:49:59 PM 46.9675 -122.3086 171° South 233 268 12,900 1,377 Climbing Seattle Center
Sun 08:51:00 PM 46.9025 -122.2892 168° South 240 276 14,400 1,033 Climbing Seattle Center
Sun 08:52:01 PM 46.8208 -122.2689 170° South 256 295 15,000 298 Climbing Seattle Center
Sun 08:53:01 PM 46.7469 -122.2636 177° South 267 307 15,000  Level Seattle Center
Sun 08:54:02 PM 46.6756 -122.2744 186° South 259 298 15,000  Level Seattle Center
Sun 08:55:03 PM 46.6072 -122.2967 193° South 253 291 15,000  Level Seattle Center
Sun 08:56:04 PM 46.5403 -122.3217 194° South 251 289 15,000 -49 Level Seattle Center
Sun 08:57:05 PM 46.4717 -122.3478 195° South 256 295 14,900  Descending Seattle Center
Sun 08:58:06 PM 46.4025 -122.3631 189° South 252 290 15,000 59 Climbing Seattle Center
Sun 08:58:47 PM 46.3433 -122.3781 190° South 258 297 15,000  Level Seattle Center
Sun 08:59:06 PM 46.3314 -122.3764 174° South 259 298 15,000  Level Seattle Center
Sun 08:59:24 PM 46.2989 -122.3839 189° South 261 300 15,000  Level Seattle Center
Sun 09:00:07 PM 46.2603 -122.3858 182° South 261 300 15,000  Level Seattle Center
Sun 09:00:24 PM 46.2242 -122.3903 185° South 263 303 15,000 -689 Level Seattle Center
Sun 09:01:08 PM 46.1844 -122.3967 186° South 265 305 14,300 -1,180 Descending Seattle Center
Sun 09:01:25 PM 46.1481 -122.4000 184° South 278 320 13,800 -1,082 Descending Seattle Center
Sun 09:02:09 PM 46.1058 -122.4114 191° South 280 322 13,200 -1,082 Descending Seattle Center
Sun 09:02:26 PM 46.0656 -122.4094 178° South 302 348 12,700 -1,154 Descending Seattle Center
Sun 09:03:27 PM 45.9822 -122.4161 183° South 300 345 11,700 -1,212 Descending Seattle Center
Sun 09:04:10 PM 45.9200 -122.4203 183° South 304 350 10,600 -1,600 Descending Seattle Center
Sun 09:04:27 PM 45.8925 -122.4222 183° South 301 346 10,100 -1,574 Descending Seattle Center
Sun 09:05:11 PM 45.8383 -122.4256 182° South 295 339 9,000 -1,377 Descending Seattle Center
Sun 09:05:28 PM 45.8139 -122.4300 187° South 283 326 8,700 -1,082 Descending Seattle Center
Sun 09:06:12 PM 45.7686 -122.4297 180° South 252 290 7,900 -1,377 Descending Seattle Center
Sun 09:06:29 PM 45.7472 -122.4328 186° South 223 257 7,300 -1,574 Descending Seattle Center
Sun 09:07:13 PM 45.7067 -122.4283 176° South 228 262 6,300 -1,377 Descending Seattle Center
Sun 09:07:30 PM 45.6883 -122.4108 146° Southeast 227 261 5,900 -1,377 Descending Seattle Center
Sun 09:08:14 PM 45.6500 -122.3958 165° South 226 260 4,900 -1,400 Descending Seattle Center
Sun 09:08:30 PM 45.6297 -122.3886 166° South 214 246 4,500 -984 Descending Seattle Center
Sun 09:09:15 PM 45.5922 -122.3719 163° South 218 251 3,900 -787 Descending Seattle Center
Sun 09:09:31 PM 45.5756 -122.3678 170° South 193 222 3,700 -800 Descending Seattle Center
Sun 09:10:15 PM 45.5442 -122.3567 166° South 192 221 3,100 -787 Descending Seattle Center
Sun 09:10:32 PM 45.5300 -122.3681 209° Southwest 160 184 2,900 -706 Descending Seattle Center

Login

Don't have an account? Register now (free) for customized features, flight alerts, and more!